Time;durP1;ratioP1;P1;durP2;ratioP2;P2;SDS_P1;SDS_P2;PMS_P1;PMS_P2;Temp;Humidity;BMP_temperature;BMP_pressure;BME280_temperature;BME280_humidity;BME280_pressure;Samples;Min_cycle;Max_cycle;Signal;HPM_P1;HPM_P2
2021/07/12 00:01:26;;;;;;;11.23;10.20;;;;;;;;;;4951080;28;20042;-69
2021/07/12 00:03:51;;;;;;;7.53;6.65;;;;;;;;;;4950597;28;20279;-68
2021/07/12 00:06:16;;;;;;;9.93;9.02;;;;;;;;;;4951100;28;20035;-68
2021/07/12 00:08:41;;;;;;;8.15;6.47;;;;;;;;;;4949662;29;20024;-68
2021/07/12 00:11:07;;;;;;;8.13;7.32;;;;;;;;;;4952745;28;20089;-69
2021/07/12 00:13:32;;;;;;;8.68;7.78;;;;;;;;;;4952249;28;20038;-69
2021/07/12 00:15:57;;;;;;;10.02;9.02;;;;;;;;;;4950801;28;20039;-69
2021/07/12 00:18:23;;;;;;;12.13;9.13;;;;;;;;;;4950637;28;20035;-68
2021/07/12 00:20:48;;;;;;;7.78;7.13;;;;;;;;;;4950955;28;20031;-68
2021/07/12 00:23:13;;;;;;;11.75;9.63;;;;;;;;;;4949512;28;20042;-68
2021/07/12 00:25:39;;;;;;;11.60;9.02;;;;;;;;;;4952617;28;20445;-68
2021/07/12 00:28:04;;;;;;;8.73;7.28;;;;;;;;;;4951768;28;20042;-68
2021/07/12 00:30:29;;;;;;;8.20;7.40;;;;;;;;;;4949128;28;20123;-69
2021/07/12 00:32:56;;;;;;;11.02;8.80;;;;;;;;;;4950511;28;20042;-68
2021/07/12 00:35:21;;;;;;;15.88;12.20;;;;;;;;;;4950510;28;20105;-68
2021/07/12 00:37:47;;;;;;;13.77;12.38;;;;;;;;;;4952537;28;20042;-70
2021/07/12 00:40:13;;;;;;;10.25;7.82;;;;;;;;;;4950545;28;20042;-68
2021/07/12 00:42:39;;;;;;;13.23;11.15;;;;;;;;;;4949215;28;20066;-68
2021/07/12 00:45:09;;;;;;;11.65;10.32;;;;;;;;;;4965045;28;20035;-68
2021/07/12 00:47:35;;;;;;;14.30;9.25;;;;;;;;;;4950291;28;20033;-68
2021/07/12 00:50:00;;;;;;;14.30;12.15;;;;;;;;;;4952325;28;20094;-68
2021/07/12 00:52:26;;;;;;;9.90;8.90;;;;;;;;;;4949848;28;20081;-69
2021/07/12 00:54:51;;;;;;;8.25;7.45;;;;;;;;;;4950221;28;20041;-68
2021/07/12 00:57:16;;;;;;;8.32;7.53;;;;;;;;;;4950576;28;20094;-68
2021/07/12 00:59:41;;;;;;;10.18;8.18;;;;;;;;;;4950063;28;20106;-68
2021/07/12 01:02:07;;;;;;;9.00;8.27;;;;;;;;;;4950786;29;20031;-68
2021/07/12 01:04:32;;;;;;;11.88;10.68;;;;;;;;;;4948917;29;20039;-68
2021/07/12 01:06:58;;;;;;;10.02;9.20;;;;;;;;;;4965042;28;20042;-68
2021/07/12 01:09:23;;;;;;;10.63;9.48;;;;;;;;;;4950226;28;20618;-68
2021/07/12 01:11:57;;;;;;;9.55;8.55;;;;;;;;;;4950460;28;20047;-69
2021/07/12 01:14:22;;;;;;;10.88;9.77;;;;;;;;;;4967484;28;20081;-69
2021/07/12 01:17:08;;;;;;;8.20;7.40;;;;;;;;;;4971497;28;20027;-70
2021/07/12 01:19:49;;;;;;;10.80;9.70;;;;;;;;;;4969007;28;20266;-69
2021/07/12 01:22:30;;;;;;;7.85;7.10;;;;;;;;;;4968840;28;20066;-68
2021/07/12 01:25:04;;;;;;;8.27;7.57;;;;;;;;;;4968098;28;20027;-69
2021/07/12 01:27:39;;;;;;;10.50;8.05;;;;;;;;;;4969095;28;20066;-68
2021/07/12 01:30:08;;;;;;;9.52;8.73;;;;;;;;;;4961147;28;20043;-68
2021/07/12 01:32:36;;;;;;;9.40;7.82;;;;;;;;;;4968661;28;20047;-68
2021/07/12 01:35:17;;;;;;;8.00;7.30;;;;;;;;;;4973841;28;20022;-68
2021/07/12 01:37:42;;;;;;;6.60;6.00;;;;;;;;;;4973523;28;20042;-68
2021/07/12 01:40:09;;;;;;;8.27;7.43;;;;;;;;;;4972984;28;20396;-69
2021/07/12 01:42:41;;;;;;;7.90;7.18;;;;;;;;;;4971962;28;20054;-68
2021/07/12 01:45:13;;;;;;;7.10;6.50;;;;;;;;;;4968533;28;20042;-68
2021/07/12 01:47:41;;;;;;;7.53;6.95;;;;;;;;;;4953571;28;20039;-68
2021/07/12 01:50:25;;;;;;;9.02;7.70;;;;;;;;;;4955544;28;20577;-68
2021/07/12 01:53:09;;;;;;;7.38;6.68;;;;;;;;;;4952107;29;20036;-69
2021/07/12 01:55:46;;;;;;;11.07;9.43;;;;;;;;;;4953840;28;20040;-68
2021/07/12 01:58:14;;;;;;;9.10;6.93;;;;;;;;;;4959310;28;20050;-68
2021/07/12 02:00:43;;;;;;;9.15;8.07;;;;;;;;;;4967881;28;20105;-68
2021/07/12 02:03:08;;;;;;;8.98;7.90;;;;;;;;;;4952651;28;20632;-68
2021/07/12 02:05:35;;;;;;;9.05;8.15;;;;;;;;;;4953390;28;20031;-68
2021/07/12 02:08:01;;;;;;;8.27;7.45;;;;;;;;;;4954955;28;20030;-68
2021/07/12 02:10:27;;;;;;;12.23;11.13;;;;;;;;;;4953384;28;20031;-68
2021/07/12 02:12:53;;;;;;;11.02;8.93;;;;;;;;;;4958202;28;20035;-70
2021/07/12 02:15:19;;;;;;;13.27;11.55;;;;;;;;;;4965522;28;20033;-70
2021/07/12 02:17:44;;;;;;;10.63;9.55;;;;;;;;;;4972325;28;20484;-68
2021/07/12 02:20:10;;;;;;;9.35;8.55;;;;;;;;;;4974381;28;20085;-68
2021/07/12 02:22:36;;;;;;;15.13;11.32;;;;;;;;;;4986633;28;20101;-68
2021/07/12 02:25:01;;;;;;;9.88;8.48;;;;;;;;;;4972509;28;20031;-68
2021/07/12 02:27:27;;;;;;;8.65;7.85;;;;;;;;;;4971885;28;20572;-68
2021/07/12 02:29:53;;;;;;;9.13;6.80;;;;;;;;;;4954872;28;20113;-68
2021/07/12 02:32:19;;;;;;;7.57;6.88;;;;;;;;;;4950994;28;20047;-68
2021/07/12 02:34:45;;;;;;;8.05;7.28;;;;;;;;;;4954773;28;20438;-68
2021/07/12 02:37:11;;;;;;;11.00;10.00;;;;;;;;;;4952643;28;20047;-68
2021/07/12 02:39:36;;;;;;;9.18;6.68;;;;;;;;;;4952461;28;20410;-69
2021/07/12 02:42:02;;;;;;;10.48;9.57;;;;;;;;;;4952411;28;20051;-69
2021/07/12 02:44:29;;;;;;;10.00;7.13;;;;;;;;;;4956339;28;20462;-68
2021/07/12 02:46:54;;;;;;;10.02;9.07;;;;;;;;;;4953397;28;20027;-69
2021/07/12 02:49:19;;;;;;;10.80;9.60;;;;;;;;;;4952297;28;20031;-69
2021/07/12 02:51:47;;;;;;;9.32;8.52;;;;;;;;;;4952387;28;20118;-69
2021/07/12 02:54:18;;;;;;;7.43;6.72;;;;;;;;;;4952216;28;20031;-68
2021/07/12 02:56:43;;;;;;;10.35;9.45;;;;;;;;;;4951568;28;20030;-69
2021/07/12 02:59:08;;;;;;;9.43;8.52;;;;;;;;;;4957208;28;20031;-68
2021/07/12 03:01:34;;;;;;;11.55;10.43;;;;;;;;;;4952149;28;20127;-67
2021/07/12 03:03:59;;;;;;;11.30;10.07;;;;;;;;;;4951786;28;20146;-68
2021/07/12 03:06:28;;;;;;;10.00;8.52;;;;;;;;;;4951965;28;20043;-68
2021/07/12 03:08:59;;;;;;;8.23;7.32;;;;;;;;;;4950350;28;20058;-68
2021/07/12 03:11:25;;;;;;;8.93;7.43;;;;;;;;;;4950762;28;20019;-68
2021/07/12 03:13:53;;;;;;;8.45;7.50;;;;;;;;;;4956588;28;20030;-68
2021/07/12 03:16:19;;;;;;;6.82;6.15;;;;;;;;;;4951760;28;20236;-68
2021/07/12 03:18:54;;;;;;;8.35;7.53;;;;;;;;;;4966430;28;20130;-68
2021/07/12 03:21:19;;;;;;;11.13;9.93;;;;;;;;;;4951791;28;20062;-68
2021/07/12 03:23:45;;;;;;;8.13;7.38;;;;;;;;;;4949572;29;20482;-67
2021/07/12 03:26:11;;;;;;;10.27;9.20;;;;;;;;;;4953494;28;20019;-67
2021/07/12 03:28:36;;;;;;;13.95;10.35;;;;;;;;;;4954154;28;20074;-68
2021/07/12 03:31:03;;;;;;;12.63;8.55;;;;;;;;;;4951033;28;20047;-68
2021/07/12 03:33:30;;;;;;;9.70;8.55;;;;;;;;;;4950454;28;20039;-68
2021/07/12 03:35:55;;;;;;;7.53;6.40;;;;;;;;;;4951030;28;20035;-68
2021/07/12 03:38:22;;;;;;;11.95;9.95;;;;;;;;;;4949928;28;20054;-71
2021/07/12 03:40:48;;;;;;;11.18;9.00;;;;;;;;;;4953185;28;20474;-68
2021/07/12 03:43:15;;;;;;;10.50;8.50;;;;;;;;;;4952956;28;20134;-68
2021/07/12 03:45:40;;;;;;;6.93;6.40;;;;;;;;;;4966462;28;20027;-68
2021/07/12 03:48:06;;;;;;;10.00;9.07;;;;;;;;;;4970379;28;20170;-67
2021/07/12 03:50:32;;;;;;;9.48;8.57;;;;;;;;;;4970577;28;20018;-68
2021/07/12 03:53:01;;;;;;;9.40;5.57;;;;;;;;;;4971799;28;20030;-68
2021/07/12 03:55:27;;;;;;;8.60;7.82;;;;;;;;;;4970222;28;20039;-67
2021/07/12 03:57:52;;;;;;;9.63;7.40;;;;;;;;;;4967573;28;20034;-67
2021/07/12 04:00:22;;;;;;;10.35;7.88;;;;;;;;;;4950740;28;20019;-68
2021/07/12 04:02:47;;;;;;;7.53;6.43;;;;;;;;;;4949049;29;20429;-68
2021/07/12 04:05:13;;;;;;;6.63;6.13;;;;;;;;;;4952604;28;20019;-67
2021/07/12 04:07:39;;;;;;;5.50;5.03;;;;;;;;;;4950897;28;20142;-68
2021/07/12 04:10:05;;;;;;;4.32;3.78;;;;;;;;;;4950645;28;20480;-68
2021/07/12 04:12:30;;;;;;;3.78;2.90;;;;;;;;;;4950183;28;20116;-68
2021/07/12 04:14:57;;;;;;;5.18;3.15;;;;;;;;;;4951561;28;20027;-68
2021/07/12 04:17:22;;;;;;;4.25;2.63;;;;;;;;;;4950675;28;20019;-68
2021/07/12 04:19:48;;;;;;;3.50;2.58;;;;;;;;;;4952676;28;20015;-68
2021/07/12 04:22:13;;;;;;;2.33;2.13;;;;;;;;;;4950127;28;20142;-68
2021/07/12 04:24:38;;;;;;;6.28;2.17;;;;;;;;;;4950409;28;20386;-68
2021/07/12 04:27:04;;;;;;;2.00;1.80;;;;;;;;;;4949777;28;20481;-68
2021/07/12 04:29:29;;;;;;;2.90;1.55;;;;;;;;;;4950503;28;20100;-69
2021/07/12 04:31:56;;;;;;;4.13;1.93;;;;;;;;;;4952258;28;20038;-68
2021/07/12 04:34:22;;;;;;;4.50;2.42;;;;;;;;;;4948852;29;20407;-68
2021/07/12 04:36:47;;;;;;;2.85;1.98;;;;;;;;;;4950397;28;20073;-68
2021/07/12 04:39:13;;;;;;;3.13;2.30;;;;;;;;;;4950473;28;20110;-69
2021/07/12 04:41:38;;;;;;;5.13;2.25;;;;;;;;;;4950272;28;20354;-68
2021/07/12 04:44:03;;;;;;;2.05;1.80;;;;;;;;;;4961152;28;20503;-68
2021/07/12 04:46:28;;;;;;;2.42;2.17;;;;;;;;;;4969285;28;20500;-69
2021/07/12 04:48:54;;;;;;;3.50;1.90;;;;;;;;;;4969313;28;20113;-68
2021/07/12 04:51:19;;;;;;;5.38;1.77;;;;;;;;;;4969463;28;20026;-68
2021/07/12 04:53:44;;;;;;;2.23;1.97;;;;;;;;;;4967488;28;20101;-68
2021/07/12 04:56:09;;;;;;;1.90;1.77;;;;;;;;;;4971445;28;20655;-68
2021/07/12 04:58:41;;;;;;;2.40;2.20;;;;;;;;;;4968869;28;21059;-70
2021/07/12 05:01:06;;;;;;;4.57;1.95;;;;;;;;;;4948642;28;20031;-69
2021/07/12 05:03:32;;;;;;;4.45;2.60;;;;;;;;;;4949635;28;20095;-69
2021/07/12 05:05:57;;;;;;;2.38;2.17;;;;;;;;;;4950020;28;20721;-69
2021/07/12 05:08:23;;;;;;;5.35;3.05;;;;;;;;;;4950293;28;20026;-70
2021/07/12 05:10:48;;;;;;;5.95;2.55;;;;;;;;;;4955886;28;20049;-70
2021/07/12 05:13:13;;;;;;;3.58;3.00;;;;;;;;;;4956247;28;20051;-69
2021/07/12 05:15:38;;;;;;;10.00;3.10;;;;;;;;;;4972948;28;20039;-70
2021/07/12 05:18:04;;;;;;;6.30;2.92;;;;;;;;;;4954473;28;20047;-69
2021/07/12 05:20:29;;;;;;;5.03;2.97;;;;;;;;;;4953652;28;20023;-70
2021/07/12 05:22:54;;;;;;;5.40;2.80;;;;;;;;;;4953963;28;20106;-69
2021/07/12 05:25:20;;;;;;;4.27;2.70;;;;;;;;;;4953699;28;20395;-69
2021/07/12 05:27:45;;;;;;;3.22;2.70;;;;;;;;;;4953743;28;20295;-69
2021/07/12 05:30:10;;;;;;;4.20;2.47;;;;;;;;;;4959818;28;20031;-70
2021/07/12 05:32:36;;;;;;;3.72;2.67;;;;;;;;;;4953077;28;20310;-69
2021/07/12 05:35:02;;;;;;;2.88;2.55;;;;;;;;;;4955501;28;20051;-69
2021/07/12 05:37:27;;;;;;;3.88;2.75;;;;;;;;;;4953414;28;20031;-69
2021/07/12 05:39:53;;;;;;;2.60;2.40;;;;;;;;;;4952210;29;20082;-70
2021/07/12 05:42:19;;;;;;;3.30;2.43;;;;;;;;;;4952888;28;20043;-69
2021/07/12 05:44:44;;;;;;;4.40;2.50;;;;;;;;;;4958918;28;20286;-69
2021/07/12 05:47:09;;;;;;;2.77;2.40;;;;;;;;;;4955302;28;20027;-70
2021/07/12 05:49:34;;;;;;;4.47;2.57;;;;;;;;;;4953415;28;20630;-69
2021/07/12 05:51:59;;;;;;;3.77;2.70;;;;;;;;;;4953345;28;20271;-70
2021/07/12 05:54:25;;;;;;;4.23;2.67;;;;;;;;;;4952954;28;20282;-69
2021/07/12 05:56:50;;;;;;;3.47;2.63;;;;;;;;;;4953039;28;20286;-69
2021/07/12 05:59:15;;;;;;;2.90;2.70;;;;;;;;;;4958427;28;20027;-69
2021/07/12 06:01:40;;;;;;;3.23;2.90;;;;;;;;;;4954796;28;20023;-69
2021/07/12 06:04:06;;;;;;;3.67;3.10;;;;;;;;;;4952605;28;20310;-70
2021/07/12 06:06:31;;;;;;;2.97;2.77;;;;;;;;;;4952941;28;20765;-69
2021/07/12 06:08:56;;;;;;;3.60;2.67;;;;;;;;;;4952949;28;20359;-69
2021/07/12 06:11:21;;;;;;;2.80;2.60;;;;;;;;;;4953619;28;20274;-70
2021/07/12 06:13:46;;;;;;;3.03;2.83;;;;;;;;;;4959619;28;20664;-70
2021/07/12 06:16:12;;;;;;;3.10;2.70;;;;;;;;;;4952905;28;20279;-69
2021/07/12 06:18:37;;;;;;;3.37;3.07;;;;;;;;;;4951823;29;20267;-69
2021/07/12 06:21:02;;;;;;;3.42;3.13;;;;;;;;;;4951720;28;20275;-69
2021/07/12 06:23:27;;;;;;;3.40;3.08;;;;;;;;;;4966993;28;20496;-69
2021/07/12 06:25:52;;;;;;;2.70;2.30;;;;;;;;;;4954481;28;20073;-71
2021/07/12 06:28:18;;;;;;;3.78;2.70;;;;;;;;;;4953433;28;20709;-69
2021/07/12 06:30:44;;;;;;;2.75;2.55;;;;;;;;;;4970237;28;20047;-69
2021/07/12 06:33:09;;;;;;;5.72;2.45;;;;;;;;;;4969391;23;20115;-71
2021/07/12 06:35:34;;;;;;;3.03;2.25;;;;;;;;;;4996553;28;20053;-71
2021/07/12 06:37:59;;;;;;;2.50;2.30;;;;;;;;;;5029911;28;20045;-71
2021/07/12 06:40:25;;;;;;;3.22;2.22;;;;;;;;;;5028676;28;20630;-70
2021/07/12 06:42:50;;;;;;;2.20;2.00;;;;;;;;;;5028502;28;20132;-70
2021/07/12 06:45:15;;;;;;;3.95;1.92;;;;;;;;;;5012740;28;20037;-71
2021/07/12 06:47:40;;;;;;;2.17;1.80;;;;;;;;;;5010386;28;20029;-71
2021/07/12 06:50:06;;;;;;;1.85;1.75;;;;;;;;;;5010990;28;20175;-70
2021/07/12 06:52:31;;;;;;;3.65;2.03;;;;;;;;;;5009715;28;20502;-70
2021/07/12 06:54:56;;;;;;;4.00;1.77;;;;;;;;;;5009644;28;20052;-71
2021/07/12 06:57:22;;;;;;;7.13;1.70;;;;;;;;;;5010323;28;20040;-71
2021/07/12 06:59:50;;;;;;;2.20;1.58;;;;;;;;;;5007340;28;20046;-72
2021/07/12 07:02:15;;;;;;;1.98;1.83;;;;;;;;;;5011516;28;20018;-71
2021/07/12 07:04:41;;;;;;;2.20;1.80;;;;;;;;;;5008463;28;20038;-70
2021/07/12 07:07:06;;;;;;;2.40;1.50;;;;;;;;;;5010177;28;20163;-71
2021/07/12 07:09:32;;;;;;;2.35;1.60;;;;;;;;;;5010372;28;20057;-71
2021/07/12 07:11:57;;;;;;;1.90;1.70;;;;;;;;;;5008711;28;20088;-71
2021/07/12 07:14:22;;;;;;;2.40;1.73;;;;;;;;;;5009031;28;20097;-71
2021/07/12 07:16:47;;;;;;;4.30;2.10;;;;;;;;;;5019166;28;20021;-71
2021/07/12 07:19:13;;;;;;;1.80;1.70;;;;;;;;;;5029286;28;20038;-71
2021/07/12 07:21:38;;;;;;;1.50;1.40;;;;;;;;;;5029638;28;20033;-71
2021/07/12 07:24:03;;;;;;;1.45;1.35;;;;;;;;;;5027815;28;20071;-71
2021/07/12 07:26:29;;;;;;;1.70;1.55;;;;;;;;;;5029540;28;20022;-71
2021/07/12 07:28:56;;;;;;;4.28;2.05;;;;;;;;;;5025902;28;20030;-70
2021/07/12 07:31:22;;;;;;;2.47;1.55;;;;;;;;;;5009426;28;20041;-71
2021/07/12 07:33:47;;;;;;;2.95;1.42;;;;;;;;;;5009159;28;20053;-70
2021/07/12 07:36:13;;;;;;;2.13;1.65;;;;;;;;;;5009051;28;20395;-72
2021/07/12 07:38:38;;;;;;;1.48;1.30;;;;;;;;;;5008328;28;20105;-71
2021/07/12 07:41:03;;;;;;;2.05;1.65;;;;;;;;;;5011550;28;20072;-71
2021/07/12 07:43:29;;;;;;;2.45;1.52;;;;;;;;;;5008892;28;20483;-70
2021/07/12 07:45:54;;;;;;;1.90;1.40;;;;;;;;;;5007941;28;20503;-70
2021/07/12 07:48:19;;;;;;;4.00;1.98;;;;;;;;;;5009284;28;20693;-71
2021/07/12 07:50:45;;;;;;;1.80;1.40;;;;;;;;;;5009576;28;20034;-71
2021/07/12 07:53:10;;;;;;;2.53;1.65;;;;;;;;;;5010889;28;20028;-71
2021/07/12 07:55:35;;;;;;;1.67;1.58;;;;;;;;;;5007652;28;20453;-70
2021/07/12 07:58:00;;;;;;;1.60;1.50;;;;;;;;;;5009239;28;20039;-71
2021/07/12 08:00:26;;;;;;;2.03;1.58;;;;;;;;;;5007860;28;20034;-70
2021/07/12 08:02:51;;;;;;;1.80;1.50;;;;;;;;;;5008386;28;20057;-70
2021/07/12 08:05:17;;;;;;;1.67;1.25;;;;;;;;;;5008963;28;20100;-71
2021/07/12 08:07:42;;;;;;;1.63;1.50;;;;;;;;;;5010967;28;20443;-70
2021/07/12 08:10:09;;;;;;;1.45;1.35;;;;;;;;;;5009080;28;20072;-71
2021/07/12 08:12:34;;;;;;;1.92;1.33;;;;;;;;;;5007030;28;20496;-71
2021/07/12 08:14:59;;;;;;;1.73;1.40;;;;;;;;;;5008102;28;20065;-71
2021/07/12 08:17:25;;;;;;;1.45;1.35;;;;;;;;;;5008289;28;20541;-71
2021/07/12 08:19:50;;;;;;;2.65;1.75;;;;;;;;;;5010878;28;20025;-71
2021/07/12 08:22:15;;;;;;;1.27;1.20;;;;;;;;;;5007993;28;20045;-71
2021/07/12 08:24:40;;;;;;;2.40;1.40;;;;;;;;;;5008688;28;20643;-71
2021/07/12 08:27:05;;;;;;;1.53;1.33;;;;;;;;;;5008738;28;20622;-71
2021/07/12 08:29:31;;;;;;;1.63;1.42;;;;;;;;;;5008401;28;20626;-70
2021/07/12 08:31:56;;;;;;;1.52;1.42;;;;;;;;;;5010634;28;20101;-71
2021/07/12 08:34:21;;;;;;;4.53;1.85;;;;;;;;;;5006064;28;20165;-71
2021/07/12 08:36:46;;;;;;;2.28;1.35;;;;;;;;;;5008814;28;20057;-71
2021/07/12 08:39:12;;;;;;;3.85;1.42;;;;;;;;;;5008285;28;20034;-71
2021/07/12 08:41:38;;;;;;;2.17;1.20;;;;;;;;;;5007445;28;20038;-71
2021/07/12 08:44:03;;;;;;;1.33;1.20;;;;;;;;;;5008879;28;20080;-70
2021/07/12 08:46:29;;;;;;;2.15;1.35;;;;;;;;;;5007379;28;20026;-71
2021/07/12 08:48:54;;;;;;;1.52;1.33;;;;;;;;;;5006288;28;20089;-71
2021/07/12 08:51:19;;;;;;;1.80;1.20;;;;;;;;;;5007097;28;20030;-71
2021/07/12 08:53:46;;;;;;;2.42;1.20;;;;;;;;;;5007742;28;20038;-71
2021/07/12 08:56:12;;;;;;;1.92;0.90;;;;;;;;;;5010603;28;20028;-71
2021/07/12 08:58:37;;;;;;;1.90;1.20;;;;;;;;;;5007186;28;20038;-71
2021/07/12 09:01:03;;;;;;;1.38;1.00;;;;;;;;;;5006949;28;20041;-71
2021/07/12 09:03:28;;;;;;;1.30;1.20;;;;;;;;;;5007774;28;20077;-71
2021/07/12 09:05:58;;;;;;;1.00;1.00;;;;;;;;;;5007672;28;20064;-71
2021/07/12 09:08:41;;;;;;;7.45;2.30;;;;;;;;;;5008323;28;20367;-71
2021/07/12 09:11:06;;;;;;;3.25;1.30;;;;;;;;;;5008959;28;20057;-70
2021/07/12 09:13:45;;;;;;;1.33;1.10;;;;;;;;;;5008059;28;20062;-71
2021/07/12 09:16:26;;;;;;;0.90;0.90;;;;;;;;;;5007662;28;20040;-71
2021/07/12 09:19:02;;;;;;;1.63;1.25;;;;;;;;;;5024232;28;20434;-70
2021/07/12 09:21:31;;;;;;;1.42;1.27;;;;;;;;;;5028187;28;20128;-71
2021/07/12 09:24:10;;;;;;;1.85;1.13;;;;;;;;;;5027737;28;20547;-71
2021/07/12 09:26:39;;;;;;;1.55;0.98;;;;;;;;;;5026697;28;20021;-71
2021/07/12 09:29:04;;;;;;;1.35;1.10;;;;;;;;;;5029101;28;20064;-70
2021/07/12 09:31:31;;;;;;;2.17;1.30;;;;;;;;;;5006862;28;20430;-71
2021/07/12 09:34:00;;;;;;;1.05;0.95;;;;;;;;;;5007495;28;20762;-70
2021/07/12 09:36:30;;;;;;;2.33;0.98;;;;;;;;;;5008211;28;20046;-70
2021/07/12 09:38:55;;;;;;;1.95;1.30;;;;;;;;;;5007270;28;20037;-71
2021/07/12 09:41:27;;;;;;;1.13;1.10;;;;;;;;;;5007907;28;20018;-71
2021/07/12 09:43:59;;;;;;;2.78;1.27;;;;;;;;;;5009691;28;20060;-70
2021/07/12 09:46:28;;;;;;;1.30;1.20;;;;;;;;;;5006096;28;20479;-71
2021/07/12 09:49:07;;;;;;;2.10;1.27;;;;;;;;;;5003715;28;20054;-72
2021/07/12 09:51:33;;;;;;;1.13;1.10;;;;;;;;;;4986810;28;20133;-71
2021/07/12 09:53:58;;;;;;;1.60;1.50;;;;;;;;;;4987446;28;20416;-71
2021/07/12 09:56:26;;;;;;;4.75;1.20;;;;;;;;;;4990878;28;20081;-71
2021/07/12 09:58:55;;;;;;;1.35;1.25;;;;;;;;;;4994041;28;20113;-71
2021/07/12 10:01:23;;;;;;;1.65;1.50;;;;;;;;;;5008808;28;20080;-71
2021/07/12 10:03:49;;;;;;;1.45;1.35;;;;;;;;;;5009623;28;20710;-71
2021/07/12 10:06:14;;;;;;;1.58;1.48;;;;;;;;;;5011091;28;20030;-71
2021/07/12 10:08:39;;;;;;;3.00;1.23;;;;;;;;;;5010956;28;20079;-71
2021/07/12 10:11:05;;;;;;;1.27;1.27;;;;;;;;;;5013314;28;20030;-71
2021/07/12 10:13:31;;;;;;;0.90;0.90;;;;;;;;;;5010073;28;20459;-71
2021/07/12 10:15:57;;;;;;;1.40;1.30;;;;;;;;;;5010170;28;20038;-71
2021/07/12 10:18:22;;;;;;;1.30;1.20;;;;;;;;;;5010614;28;20387;-71
2021/07/12 10:20:47;;;;;;;1.48;1.38;;;;;;;;;;5010485;28;20038;-72
2021/07/12 10:23:14;;;;;;;1.85;1.20;;;;;;;;;;5012818;28;20068;-72
2021/07/12 10:25:44;;;;;;;1.40;1.17;;;;;;;;;;5010937;28;20045;-71
2021/07/12 10:28:10;;;;;;;1.20;1.20;;;;;;;;;;5010676;28;20033;-72
2021/07/12 10:30:53;;;;;;;1.35;1.20;;;;;;;;;;5009976;28;20120;-71
2021/07/12 10:33:29;;;;;;;1.00;1.00;;;;;;;;;;5003143;28;20046;-71
2021/07/12 10:35:55;;;;;;;1.30;1.20;;;;;;;;;;5009054;28;20038;-72
2021/07/12 10:38:25;;;;;;;1.10;1.00;;;;;;;;;;5008831;28;20387;-71
2021/07/12 10:40:57;;;;;;;6.80;1.77;;;;;;;;;;5013148;28;20033;-72
2021/07/12 10:43:32;;;;;;;1.30;1.08;;;;;;;;;;5009292;28;20045;-71
2021/07/12 10:45:57;;;;;;;1.23;1.15;;;;;;;;;;5009410;28;20117;-71
2021/07/12 10:48:31;;;;;;;2.17;1.30;;;;;;;;;;5010405;28;20105;-72
2021/07/12 10:50:56;;;;;;;1.13;1.05;;;;;;;;;;5009076;28;20034;-71
2021/07/12 10:53:22;;;;;;;1.73;1.00;;;;;;;;;;5008967;28;20033;-72
2021/07/12 10:56:06;;;;;;;1.35;1.13;;;;;;;;;;5012273;28;20615;-71
2021/07/12 10:58:31;;;;;;;1.35;1.10;;;;;;;;;;5009435;28;20396;-72
2021/07/12 11:00:58;;;;;;;1.20;1.10;;;;;;;;;;5007239;28;20039;-72
2021/07/12 11:03:42;;;;;;;1.52;1.10;;;;;;;;;;5009507;28;20133;-71
2021/07/12 11:06:08;;;;;;;1.58;1.48;;;;;;;;;;5009430;28;20525;-72
2021/07/12 11:08:40;;;;;;;1.25;1.23;;;;;;;;;;5008173;28;20053;-71
2021/07/12 11:11:05;;;;;;;1.55;1.45;;;;;;;;;;5012067;28;20568;-72
2021/07/12 11:13:49;;;;;;;1.27;1.17;;;;;;;;;;5008999;28;20126;-72
2021/07/12 11:16:21;;;;;;;1.80;1.23;;;;;;;;;;5007836;28;20092;-73
2021/07/12 11:18:47;;;;;;;1.40;1.30;;;;;;;;;;5008968;28;20038;-72
2021/07/12 11:21:14;;;;;;;1.45;1.30;;;;;;;;;;5008453;28;20084;-73
2021/07/12 11:23:52;;;;;;;1.33;1.10;;;;;;;;;;5009112;28;20065;-72
2021/07/12 11:26:20;;;;;;;2.22;1.10;;;;;;;;;;5010564;28;20032;-72
2021/07/12 11:28:47;;;;;;;1.60;1.50;;;;;;;;;;5010315;28;20037;-72
2021/07/12 11:31:31;;;;;;;1.17;1.13;;;;;;;;;;5008880;28;20042;-73
2021/07/12 11:33:57;;;;;;;1.67;1.40;;;;;;;;;;5026380;28;20517;-73
2021/07/12 11:36:22;;;;;;;1.30;1.20;;;;;;;;;;5028587;28;20132;-71
2021/07/12 11:38:47;;;;;;;1.30;1.20;;;;;;;;;;5028338;28;20450;-72
2021/07/12 11:41:13;;;;;;;1.27;1.03;;;;;;;;;;5030207;28;20608;-73
2021/07/12 11:43:38;;;;;;;1.57;1.00;;;;;;;;;;5028628;28;20693;-72
2021/07/12 11:46:03;;;;;;;2.80;1.30;;;;;;;;;;5016263;28;20351;-72
2021/07/12 11:48:28;;;;;;;1.10;1.10;;;;;;;;;;5008167;28;20681;-72
2021/07/12 11:50:53;;;;;;;1.03;1.03;;;;;;;;;;5007925;28;20037;-72
2021/07/12 11:53:19;;;;;;;2.47;1.23;;;;;;;;;;5010910;28;20054;-72
2021/07/12 11:55:44;;;;;;;1.08;0.90;;;;;;;;;;5008956;28;20036;-73
2021/07/12 11:58:09;;;;;;;1.30;1.20;;;;;;;;;;5009141;28;20087;-73
2021/07/12 12:00:36;;;;;;;1.52;1.42;;;;;;;;;;5007400;28;20030;-72
2021/07/12 12:03:03;;;;;;;1.20;1.20;;;;;;;;;;5007994;28;20042;-73
2021/07/12 12:05:29;;;;;;;1.35;1.25;;;;;;;;;;5008843;28;20498;-73
2021/07/12 12:07:57;;;;;;;2.50;1.35;;;;;;;;;;5009828;28;20489;-73
2021/07/12 12:10:30;;;;;;;1.40;1.30;;;;;;;;;;5008618;28;20034;-73
2021/07/12 12:12:56;;;;;;;1.50;1.40;;;;;;;;;;5008388;28;20521;-74
2021/07/12 12:15:23;;;;;;;2.25;1.65;;;;;;;;;;5003924;28;20053;-74
2021/07/12 12:17:59;;;;;;;1.58;1.30;;;;;;;;;;5005897;28;20030;-73
2021/07/12 12:20:27;;;;;;;1.60;1.50;;;;;;;;;;5008314;28;20100;-73
2021/07/12 12:22:54;;;;;;;1.77;1.67;;;;;;;;;;5010420;28;20109;-73
2021/07/12 12:25:19;;;;;;;2.67;1.48;;;;;;;;;;5008738;28;20034;-73
2021/07/12 12:27:45;;;;;;;2.00;1.20;;;;;;;;;;5008659;28;20052;-73
2021/07/12 12:30:10;;;;;;;3.45;1.55;;;;;;;;;;5006877;28;20061;-72
2021/07/12 12:32:36;;;;;;;1.60;1.50;;;;;;;;;;5007576;28;20060;-73
2021/07/12 12:35:03;;;;;;;1.63;1.52;;;;;;;;;;5027845;23;20045;-69
2021/07/12 12:37:39;;;;;;;2.60;1.60;;;;;;;;;;5008659;28;20045;-71
2021/07/12 12:40:16;;;;;;;2.08;1.60;;;;;;;;;;5008789;28;20042;-70
2021/07/12 12:42:42;;;;;;;2.15;1.55;;;;;;;;;;5008290;28;20052;-71
2021/07/12 12:45:07;;;;;;;2.88;1.38;;;;;;;;;;5008225;28;20026;-70
2021/07/12 12:47:32;;;;;;;2.08;1.38;;;;;;;;;;5008573;28;20093;-70
2021/07/12 12:50:10;;;;;;;3.77;1.67;;;;;;;;;;5010474;28;20026;-69
2021/07/12 12:52:35;;;;;;;3.17;1.65;;;;;;;;;;5008371;28;20034;-70
2021/07/12 12:55:08;;;;;;;1.50;1.40;;;;;;;;;;5008671;28;20613;-70
2021/07/12 12:57:35;;;;;;;2.00;1.83;;;;;;;;;;5008731;28;20626;-70
2021/07/12 13:00:05;;;;;;;2.00;1.90;;;;;;;;;;5008560;28;20034;-70
2021/07/12 13:02:36;;;;;;;1.80;1.70;;;;;;;;;;5002753;28;20033;-71
2021/07/12 13:05:06;;;;;;;1.67;1.57;;;;;;;;;;5010343;28;20018;-70
2021/07/12 13:07:31;;;;;;;1.97;1.87;;;;;;;;;;5007069;28;20277;-70
2021/07/12 13:10:00;;;;;;;1.70;1.60;;;;;;;;;;5008447;28;20273;-70
2021/07/12 13:12:25;;;;;;;2.55;1.88;;;;;;;;;;5008045;28;20117;-71
2021/07/12 13:14:52;;;;;;;3.35;2.00;;;;;;;;;;5008283;28;20122;-71
2021/07/12 13:17:21;;;;;;;1.92;1.83;;;;;;;;;;5009481;28;20104;-71
2021/07/12 13:19:57;;;;;;;2.40;1.70;;;;;;;;;;5008678;28;20034;-70
2021/07/12 13:22:26;;;;;;;1.88;1.60;;;;;;;;;;5007821;28;20048;-70
2021/07/12 13:24:53;;;;;;;2.13;2.03;;;;;;;;;;5006736;28;20038;-71
2021/07/12 13:27:35;;;;;;;2.22;2.13;;;;;;;;;;5008161;28;20076;-69
2021/07/12 13:30:04;;;;;;;2.00;1.90;;;;;;;;;;5009105;28;20438;-69
2021/07/12 13:32:29;;;;;;;2.75;2.25;;;;;;;;;;5010744;28;20071;-69
2021/07/12 13:35:04;;;;;;;2.03;1.90;;;;;;;;;;5013797;28;20053;-70
2021/07/12 13:37:30;;;;;;;2.20;2.00;;;;;;;;;;5012102;28;20038;-70
2021/07/12 13:39:56;;;;;;;2.25;1.75;;;;;;;;;;5011889;28;20030;-70
2021/07/12 13:42:21;;;;;;;2.38;1.83;;;;;;;;;;5011124;28;20034;-70
2021/07/12 13:44:46;;;;;;;2.40;2.22;;;;;;;;;;5011781;28;20116;-71
2021/07/12 13:47:12;;;;;;;2.88;2.08;;;;;;;;;;5013395;28;20383;-71
2021/07/12 13:49:38;;;;;;;2.92;2.08;;;;;;;;;;5010444;28;20038;-68
2021/07/12 13:52:03;;;;;;;2.75;1.98;;;;;;;;;;5010283;28;20038;-70
2021/07/12 13:54:29;;;;;;;2.10;1.90;;;;;;;;;;5011289;28;20041;-70
2021/07/12 13:56:54;;;;;;;3.10;1.75;;;;;;;;;;5011719;28;20042;-71
2021/07/12 13:59:19;;;;;;;2.07;1.87;;;;;;;;;;5013190;28;20022;-70
2021/07/12 14:01:46;;;;;;;2.45;1.95;;;;;;;;;;5009442;28;20281;-71
2021/07/12 14:04:11;;;;;;;3.08;2.10;;;;;;;;;;5010143;28;20038;-70
2021/07/12 14:06:37;;;;;;;3.30;2.13;;;;;;;;;;5011134;28;20037;-70
2021/07/12 14:09:02;;;;;;;2.53;1.57;;;;;;;;;;5011308;28;20026;-71
2021/07/12 14:11:27;;;;;;;2.47;1.70;;;;;;;;;;5011034;28;20061;-70
2021/07/12 14:13:52;;;;;;;2.00;1.80;;;;;;;;;;5012615;28;20357;-71
2021/07/12 14:16:21;;;;;;;2.63;1.73;;;;;;;;;;5010537;28;20042;-71
2021/07/12 14:18:47;;;;;;;2.70;2.03;;;;;;;;;;5009657;28;20037;-70
2021/07/12 14:21:15;;;;;;;3.70;1.83;;;;;;;;;;5009926;28;20026;-70
2021/07/12 14:23:40;;;;;;;3.78;1.90;;;;;;;;;;5010689;28;20026;-70
2021/07/12 14:26:06;;;;;;;3.17;2.05;;;;;;;;;;5012976;28;20033;-70
2021/07/12 14:28:31;;;;;;;2.77;1.40;;;;;;;;;;5011152;28;20476;-70
2021/07/12 14:30:56;;;;;;;1.55;1.45;;;;;;;;;;5010546;28;20277;-70
2021/07/12 14:33:21;;;;;;;1.73;1.60;;;;;;;;;;5010126;28;20030;-71
2021/07/12 14:35:46;;;;;;;2.00;1.70;;;;;;;;;;5010874;28;20446;-72
2021/07/12 14:38:12;;;;;;;2.03;1.40;;;;;;;;;;5012810;28;20292;-71
2021/07/12 14:40:37;;;;;;;2.40;1.73;;;;;;;;;;5010580;28;20120;-71